Flight Track Log - Related Links

Times and Time Zones

All times are in EDT time to prevent confusion due to time zone crossing. See the GJS3649 flight status page for this flight to view local times or setup timezone preferences in your user account.

Time Position Orientation Groundspeed Altitude Reporting Facility
EDT Latitude Longitude Course Direction KTS MPH feet Rate Location/Type
Fri 12:31:00 AM 41.9333 -87.9000 169° South 192 221 2,200  Level Chicago TRACON
Fri 12:32:00 AM 41.8667 -87.8833 169° South 243 280 4,400 1,983 Climbing Chicago TRACON
Fri 12:32:58 AM 41.8056 -87.8806 178° South 268 308 6,100 2,168 Climbing Chicago Center
Fri 12:33:59 AM 41.7239 -87.8700 174° South 289 333 8,700 2,410 Climbing Chicago Center
Fri 12:35:00 AM 41.6389 -87.8544 172° South 304 350 11,000 2,000 Climbing Chicago Center
Fri 12:36:02 AM 41.5664 -87.7767 141° Southeast 339 390 12,800 1,122 Climbing Chicago Center
Fri 12:37:03 AM 41.4703 -87.7097 152° Southeast 384 442 13,300 984 Climbing Chicago Center
Fri 12:38:04 AM 41.3561 -87.6678 165° South 409 471 14,800 1,525 Climbing Chicago Center
Fri 12:39:05 AM 41.2161 -87.6136 164° South 425 489 16,400 1,721 Climbing Chicago Center
Fri 12:40:06 AM 41.0953 -87.5694 165° South 442 509 18,300 1,525 Climbing Chicago Center
Fri 12:41:07 AM 40.9758 -87.5256 164° South 446 513 19,500 836 Climbing Chicago Center
Fri 12:42:08 AM 40.8517 -87.4772 164° South 458 527 20,000 639 Climbing Chicago Center
Fri 12:43:09 AM 40.7203 -87.4333 166° South 482 555 20,800 893 Climbing Chicago Center
Fri 12:44:09 AM 40.5900 -87.3856 164° South 487 560 21,800 893 Climbing Chicago Center
Fri 12:45:10 AM 40.4600 -87.3364 164° South 487 560 22,600 836 Climbing Chicago Center
Fri 12:46:11 AM 40.3394 -87.2278 146° Southeast 508 585 23,500 836 Climbing Chicago Center
Fri 12:47:12 AM 40.2239 -87.1192 144° Southeast 513 590 24,300 787 Climbing Chicago Center
Fri 12:48:13 AM 40.1067 -87.0111 145° Southeast 516 594 25,100 787 Climbing Chicago Center
Fri 12:49:14 AM 39.9883 -86.9028 145° Southeast 519 597 25,900 793 Climbing Chicago Center
Fri 12:50:14 AM 39.8653 -86.8022 148° Southeast 523 602 26,700 744 Climbing Chicago Center
Fri 12:51:15 AM 39.7417 -86.7031 148° Southeast 527 606 27,400 738 Climbing Chicago Center
Fri 12:52:16 AM 39.6411 -86.5167 125° Southeast 538 619 28,200 787 Climbing Chicago Center
Fri 12:53:17 AM 39.5692 -86.3503 119° Southeast 541 623 29,000 689 Climbing Chicago Center
Fri 12:54:18 AM 39.4956 -86.1825 120° Southeast 545 627 29,600 545 Climbing Chicago Center
Fri 12:55:18 AM 39.4222 -86.0142 119° Southeast 545 627 30,100 496 Climbing Chicago Center
Fri 12:56:19 AM 39.3469 -85.8456 120° Southeast 545 627 30,600 492 Climbing Chicago Center
Fri 12:57:20 AM 39.2717 -85.6750 120° Southeast 547 629 31,100 512 Climbing Chicago Center
Fri 12:58:28 AM 39.1806 -85.4711 120° Southeast 551 634 31,700 516 Climbing Indianapolis Center
Fri 12:59:28 AM 39.1033 -85.3006 120° Southeast 553 636 32,200 496 Climbing Indianapolis Center
Fri 01:00:29 AM 39.0272 -85.1306 120° Southeast 552 635 32,700 541 Climbing Indianapolis Center
Fri 01:01:30 AM 38.9492 -84.9614 121° Southeast 551 634 33,300 590 Climbing Indianapolis Center
Fri 01:02:31 AM 38.8742 -84.7947 120° Southeast 543 625 33,900 590 Climbing Indianapolis Center
Fri 01:03:32 AM 38.7997 -84.6272 120° Southeast 544 626 34,500 645 Climbing Indianapolis Center
Fri 01:04:32 AM 38.7094 -84.4422 122° Southeast 541 623 35,200 645 Climbing Indianapolis Center
Fri 01:05:33 AM 38.6439 -84.2706 116° Southeast 536 617 35,800 595 Climbing Indianapolis Center
Fri 01:06:33 AM 38.5947 -84.0942 110° East 527 606 36,400 595 Climbing Indianapolis Center
Fri 01:07:34 AM 38.5500 -83.9125 107° East 530 610 37,000 590 Climbing Indianapolis Center
Fri 01:08:35 AM 38.5031 -83.7364 109° East 526 605 37,600 645 Climbing Indianapolis Center
Fri 01:09:35 AM 38.4564 -83.5628 109° East 520 598 38,300 645 Climbing Indianapolis Center
Fri 01:10:36 AM 38.4103 -83.3908 109° East 513 590 38,900 344 Climbing Indianapolis Center
Fri 01:11:37 AM 38.3653 -83.2192 108° East 510 587 39,000 50 Climbing Indianapolis Center
Fri 01:12:37 AM 38.3144 -83.0467 111° Southeast 517 595 39,000  Level Indianapolis Center
Fri 01:13:38 AM 38.2344 -82.8933 124° Southeast 519 597 39,000  Level Indianapolis Center
Fri 01:14:39 AM 38.1528 -82.7428 125° Southeast 516 594 39,000  Level Indianapolis Center
Fri 01:15:39 AM 38.0719 -82.5961 125° Southeast 507 583 39,000  Level Indianapolis Center
Fri 01:16:40 AM 37.9917 -82.4461 124° Southeast 509 586 39,000  Level Indianapolis Center
Fri 01:17:41 AM 37.9106 -82.2989 125° Southeast 508 585 39,000  Level Indianapolis Center
Fri 01:18:41 AM 37.8281 -82.1500 125° Southeast 513 590 39,000  Level Indianapolis Center
Fri 01:19:42 AM 37.7483 -82.0047 125° Southeast 505 581 39,000  Level Indianapolis Center
Fri 01:20:42 AM 37.6669 -81.8589 125° Southeast 506 582 39,000  Level Indianapolis Center
Fri 01:21:43 AM 37.5856 -81.7156 126° Southeast 503 579 39,000  Level Indianapolis Center
Fri 01:22:44 AM 37.5058 -81.5708 125° Southeast 501 577 39,000  Level Indianapolis Center
Fri 01:23:44 AM 37.4169 -81.4142 126° Southeast 500 575 39,000  Level Indianapolis Center
Fri 01:24:45 AM 37.3378 -81.2769 126° Southeast 500 575 39,000  Level Indianapolis Center
Fri 01:25:45 AM 37.2597 -81.1397 126° Southeast 499 574 39,000 -50 Level Indianapolis Center
Fri 01:26:46 AM 37.1819 -81.0036 126° Southeast 496 571 38,900 -934 Descending Indianapolis Center
Fri 01:27:47 AM 37.1039 -80.8669 126° Southeast 497 572 37,100 -2,083 Descending Indianapolis Center
Fri 01:28:47 AM 37.0072 -80.6969 125° Southeast 514 592 34,700 -2,281 Descending Indianapolis Center
Fri 01:29:48 AM 36.9244 -80.5536 126° Southeast 522 601 32,500 -2,132 Descending Indianapolis Center
Fri 01:30:48 AM 36.8406 -80.4100 126° Southeast 526 605 30,400 -2,083 Descending Indianapolis Center
Fri 01:31:49 AM 36.7578 -80.2683 126° Southeast 522 601 28,300 -2,132 Descending Indianapolis Center
Fri 01:32:49 AM 36.6786 -80.1300 125° Southeast 508 585 26,100 -2,331 Descending Indianapolis Center
Fri 01:33:50 AM 36.5892 -79.9772 126° Southeast 475 547 23,600 -2,276 Descending Indianapolis Center
Fri 01:35:14 AM 36.4767 -79.7922 127° Southeast 487 560 20,600 -2,197 Descending Washington Center
Fri 01:36:12 AM 36.4019 -79.6617 125° Southeast 479 551 18,400 -2,319 Descending Washington Center
Fri 01:37:13 AM 36.3328 -79.5472 127° Southeast 441 507 16,000 -2,308 Descending Washington Center
Fri 01:38:22 AM 36.2575 -79.4250 127° Southeast 377 434 13,400 -1,488 Descending Washington Center
Fri 01:39:14 AM 36.2100 -79.3375 124° Southeast 375 432 13,000 -690 Descending Washington Center
Fri 01:40:15 AM 36.1528 -79.2344 124° Southeast 366 421 12,100 -1,388 Descending Washington Center
Fri 01:41:15 AM 36.1142 -79.1325 115° Southeast 343 395 10,200 -1,400 Descending Washington Center
Fri 01:42:15 AM 36.0853 -79.0542 115° Southeast 308 354 9,300 -2,000 Descending Washington Center
Fri 01:43:12 AM 36.0561 -78.9731 114° Southeast 277 319 6,300 -2,847 Descending Washington Center
Fri 01:44:13 AM 36.0272 -78.8897 113° Southeast 262 302 3,700 -1,672 Descending Washington Center
Fri 01:45:14 AM 36.0019 -78.8244 116° Southeast 240 276 2,900 -843 Descending Washington Center
Fri 01:46:14 AM 35.9786 -78.7619 115° Southeast 210 242 2,000 -586 Descending Washington Center
Fri 01:47:27 AM 35.9311 -78.7344 155° Southeast 147 169 1,600 -485 Descending Washington Center
Fri 01:48:30 AM 35.9053 -78.7642 223° Southwest 119 137 900 -667 Descending Washington Center
Fri 01:50:00 AM 35.8776 -78.7875 133° Southeast  Level Estimated
Fri 01:57:00 AM 35.8776 -78.7875 133° Southeast  Level Estimated

Login

Don't have an account? Register now (free) for customized features, flight alerts, and more!